Time,TemperatureF,DewpointF,PressureIn,WindDirection,WindDirectionDegrees,WindSpeedMPH,WindSpeedGustMPH,Humidity,HourlyPrecipIn,Conditions,Clouds,dailyrainin,SolarRadiationWatts/m^2,SoftwareType,DateUTC
2013-10-04 00:50:00,33.0,22.0,30.24,North,350,6.0,9.0,62,-99.99,,,-99.99,0.000000,,2013-10-04 07:50:00,
2013-10-04 01:25:00,33.0,22.0,30.24,North,350,6.0,9.0,62,-99.99,,,-99.99,0.000000,,2013-10-04 08:25:00,
2013-10-04 01:34:00,33.0,22.0,30.24,North,350,6.0,9.0,62,-99.99,,,-99.99,0.000000,,2013-10-04 08:34:00,
2013-10-04 01:45:00,33.0,22.0,30.24,North,350,6.0,9.0,62,-99.99,,,-99.99,0.000000,,2013-10-04 08:45:00,
2013-10-04 01:50:00,34.0,23.0,30.25,North,350,6.0,8.0,63,-99.99,,,-99.99,0.000000,,2013-10-04 08:50:00,
2013-10-04 02:25:00,34.0,23.0,30.25,North,350,6.0,8.0,63,-99.99,,,-99.99,0.000000,,2013-10-04 09:25:00,
2013-10-04 02:36:00,34.0,23.0,30.25,North,350,6.0,8.0,63,-99.99,,,-99.99,0.000000,,2013-10-04 09:36:00,
2013-10-04 02:46:00,34.0,23.0,30.25,North,350,6.0,8.0,63,-99.99,,,-99.99,0.000000,,2013-10-04 09:46:00,
2013-10-04 02:50:00,31.0,19.0,30.27,ENE,71,4.0,5.0,63,-99.99,,,-99.99,0.000000,,2013-10-04 09:50:00,
2013-10-04 03:27:00,31.0,19.0,30.27,ENE,71,4.0,5.0,63,-99.99,,,-99.99,0.000000,,2013-10-04 10:27:00,
2013-10-04 03:37:00,31.0,19.0,30.27,ENE,71,4.0,5.0,63,-99.99,,,-99.99,0.000000,,2013-10-04 10:37:00,
2013-10-04 03:47:00,31.0,19.0,30.27,ENE,71,4.0,5.0,63,-99.99,,,-99.99,0.000000,,2013-10-04 10:47:00,
2013-10-04 03:50:00,33.0,22.0,30.28,NNW,338,2.0,3.0,63,-99.99,,,-99.99,0.000000,,2013-10-04 10:50:00,
2013-10-04 04:47:00,33.0,22.0,30.28,NNW,338,2.0,3.0,63,-99.99,,,-99.99,0.000000,,2013-10-04 11:47:00,
2013-10-04 07:50:00,29.0,22.0,30.35,ESE,115,2.0,3.0,76,-99.99,,,-99.99,120.000000,,2013-10-04 14:50:00,
2013-10-04 08:27:00,29.0,22.0,30.35,ESE,115,2.0,3.0,76,-99.99,,,-99.99,120.000000,,2013-10-04 15:27:00,
2013-10-04 08:37:00,29.0,22.0,30.35,ESE,115,2.0,3.0,76,-99.99,,,-99.99,120.000000,,2013-10-04 15:37:00,
2013-10-04 08:47:00,29.0,22.0,30.35,ESE,115,2.0,3.0,76,-99.99,,,-99.99,120.000000,,2013-10-04 15:47:00,
2013-10-04 08:50:00,38.0,22.0,30.36,ESE,118,2.0,3.0,52,-99.99,,,-99.99,320.000000,,2013-10-04 15:50:00,
2013-10-04 09:27:00,38.0,22.0,30.36,ESE,118,2.0,3.0,52,-99.99,,,-99.99,320.000000,,2013-10-04 16:27:00,
2013-10-04 09:37:00,38.0,22.0,30.36,ESE,118,2.0,3.0,52,-99.99,,,-99.99,320.000000,,2013-10-04 16:37:00,
2013-10-04 09:47:00,38.0,22.0,30.36,ESE,118,2.0,3.0,52,-99.99,,,-99.99,320.000000,,2013-10-04 16:47:00,
2013-10-04 10:27:00,44.0,23.0,30.36,NE,35,3.0,8.0,43,-99.99,,,-99.99,520.000000,,2013-10-04 17:27:00,
2013-10-04 10:50:00,47.0,24.0,30.36,WNW,291,2.0,5.0,39,-99.99,,,-99.99,670.000000,,2013-10-04 17:50:00,
2013-10-04 11:28:00,47.0,24.0,30.36,WNW,291,2.0,5.0,39,-99.99,,,-99.99,670.000000,,2013-10-04 18:28:00,
2013-10-04 11:38:00,47.0,24.0,30.36,WNW,291,2.0,5.0,39,-99.99,,,-99.99,670.000000,,2013-10-04 18:38:00,
2013-10-04 11:47:00,47.0,24.0,30.36,WNW,291,2.0,5.0,39,-99.99,,,-99.99,670.000000,,2013-10-04 18:47:00,
2013-10-04 11:50:00,52.0,23.0,30.35,SSE,166,4.0,8.0,32,-99.99,,,-99.99,770.000000,,2013-10-04 18:50:00,
2013-10-04 12:22:00,52.0,23.0,30.35,SSE,166,4.0,8.0,32,-99.99,,,-99.99,770.000000,,2013-10-04 19:22:00,
2013-10-04 12:32:00,52.0,23.0,30.35,SSE,166,4.0,8.0,32,-99.99,,,-99.99,770.000000,,2013-10-04 19:32:00,
2013-10-04 12:43:00,52.0,23.0,30.35,SSE,166,4.0,8.0,32,-99.99,,,-99.99,770.000000,,2013-10-04 19:43:00,
2013-10-04 12:50:00,54.0,23.0,30.34,SSE,154,4.0,8.0,30,-99.99,,,-99.99,800.000000,,2013-10-04 19:50:00,
2013-10-04 13:22:00,54.0,23.0,30.34,SSE,154,4.0,8.0,30,-99.99,,,-99.99,800.000000,,2013-10-04 20:22:00,
2013-10-04 13:32:00,54.0,23.0,30.34,SSE,154,4.0,8.0,30,-99.99,,,-99.99,800.000000,,2013-10-04 20:32:00,
2013-10-04 13:42:00,54.0,23.0,30.34,SSE,154,4.0,8.0,30,-99.99,,,-99.99,800.000000,,2013-10-04 20:42:00,
2013-10-04 13:50:00,54.0,21.0,30.32,NW,316,3.0,8.0,27,-99.99,,,-99.99,770.000000,,2013-10-04 20:50:00,
2013-10-04 14:22:00,54.0,21.0,30.32,NW,316,3.0,8.0,27,-99.99,,,-99.99,770.000000,,2013-10-04 21:22:00,
2013-10-04 14:33:00,54.0,21.0,30.32,NW,316,3.0,8.0,27,-99.99,,,-99.99,770.000000,,2013-10-04 21:33:00,
2013-10-04 14:43:00,54.0,21.0,30.32,NW,316,3.0,8.0,27,-99.99,,,-99.99,770.000000,,2013-10-04 21:43:00,
2013-10-04 14:50:00,57.0,23.0,30.31,North,0,8.0,13.0,26,-99.99,,,-99.99,670.000000,,2013-10-04 21:50:00,
2013-10-04 15:23:00,57.0,23.0,30.31,North,0,8.0,13.0,26,-99.99,,,-99.99,670.000000,,2013-10-04 22:23:00,
2013-10-04 15:33:00,57.0,23.0,30.31,North,0,8.0,13.0,26,-99.99,,,-99.99,670.000000,,2013-10-04 22:33:00,
2013-10-04 15:42:00,57.0,23.0,30.31,North,0,8.0,13.0,26,-99.99,,,-99.99,670.000000,,2013-10-04 22:42:00,
2013-10-04 15:50:00,58.0,20.0,30.29,North,4,14.0,20.0,23,-99.99,,,-99.99,520.000000,,2013-10-04 22:50:00,
2013-10-04 16:22:00,58.0,20.0,30.29,North,4,14.0,20.0,23,-99.99,,,-99.99,520.000000,,2013-10-04 23:22:00,
2013-10-04 16:33:00,58.0,20.0,30.29,North,4,14.0,20.0,23,-99.99,,,-99.99,520.000000,,2013-10-04 23:33:00,
2013-10-04 16:42:00,58.0,20.0,30.29,North,4,14.0,20.0,23,-99.99,,,-99.99,520.000000,,2013-10-04 23:42:00,
2013-10-04 16:50:00,57.0,20.0,30.29,North,1,14.0,20.0,23,-99.99,,,-99.99,330.000000,,2013-10-04 23:50:00,
2013-10-04 17:42:00,57.0,20.0,30.29,North,1,14.0,20.0,23,-99.99,,,-99.99,330.000000,,2013-10-05 00:42:00,
2013-10-04 17:50:00,53.0,20.0,30.30,North,355,12.0,20.0,27,-99.99,,,-99.99,130.000000,,2013-10-05 00:50:00,
2013-10-04 18:21:00,53.0,20.0,30.30,North,355,12.0,20.0,27,-99.99,,,-99.99,130.000000,,2013-10-05 01:21:00,
2013-10-04 18:32:00,53.0,20.0,30.30,North,355,12.0,20.0,27,-99.99,,,-99.99,130.000000,,2013-10-05 01:32:00,
2013-10-04 18:43:00,53.0,20.0,30.30,North,355,12.0,20.0,27,-99.99,,,-99.99,130.000000,,2013-10-05 01:43:00,
2013-10-04 18:50:00,46.0,20.0,30.30,NNW,339,6.0,11.0,35,-99.99,,,-99.99,0.000000,,2013-10-05 01:50:00,
2013-10-04 19:22:00,46.0,20.0,30.30,NNW,339,6.0,11.0,35,-99.99,,,-99.99,0.000000,,2013-10-05 02:22:00,
2013-10-04 19:32:00,46.0,20.0,30.30,NNW,339,6.0,11.0,35,-99.99,,,-99.99,0.000000,,2013-10-05 02:32:00,
2013-10-04 19:42:00,46.0,20.0,30.30,NNW,339,6.0,11.0,35,-99.99,,,-99.99,0.000000,,2013-10-05 02:42:00,
2013-10-04 19:50:00,44.0,20.0,30.31,NNW,335,7.0,11.0,38,-99.99,,,-99.99,0.000000,,2013-10-05 02:50:00,
2013-10-04 20:23:00,44.0,20.0,30.31,NNW,335,7.0,11.0,38,-99.99,,,-99.99,0.000000,,2013-10-05 03:23:00,
2013-10-04 20:34:00,44.0,20.0,30.31,NNW,335,7.0,11.0,38,-99.99,,,-99.99,0.000000,,2013-10-05 03:34:00,
2013-10-04 20:45:00,44.0,20.0,30.31,NNW,335,7.0,11.0,38,-99.99,,,-99.99,0.000000,,2013-10-05 03:45:00,
2013-10-04 20:50:00,41.0,19.0,30.33,North,359,6.0,9.0,42,-99.99,,,-99.99,0.000000,,2013-10-05 03:50:00,
2013-10-04 21:24:00,41.0,19.0,30.33,North,359,6.0,9.0,42,-99.99,,,-99.99,0.000000,,2013-10-05 04:24:00,
2013-10-04 21:33:00,41.0,19.0,30.33,North,359,6.0,9.0,42,-99.99,,,-99.99,0.000000,,2013-10-05 04:33:00,
2013-10-04 21:43:00,41.0,19.0,30.33,North,359,6.0,9.0,42,-99.99,,,-99.99,0.000000,,2013-10-05 04:43:00,
2013-10-04 21:50:00,37.0,17.0,30.35,ENE,61,4.0,8.0,43,-99.99,,,-99.99,0.000000,,2013-10-05 04:50:00,
2013-10-04 22:22:00,37.0,17.0,30.35,ENE,61,4.0,8.0,43,-99.99,,,-99.99,0.000000,,2013-10-05 05:22:00,
2013-10-04 22:34:00,37.0,17.0,30.35,ENE,61,4.0,8.0,43,-99.99,,,-99.99,0.000000,,2013-10-05 05:34:00,
2013-10-04 22:43:00,37.0,17.0,30.35,ENE,61,4.0,8.0,43,-99.99,,,-99.99,0.000000,,2013-10-05 05:43:00,
2013-10-04 22:50:00,33.0,18.0,30.37,South,172,1.0,3.0,53,-99.99,,,-99.99,0.000000,,2013-10-05 05:50:00,
2013-10-04 23:22:00,33.0,18.0,30.37,South,172,1.0,3.0,53,-99.99,,,-99.99,0.000000,,2013-10-05 06:22:00,
2013-10-04 23:32:00,33.0,18.0,30.37,South,172,1.0,3.0,53,-99.99,,,-99.99,0.000000,,2013-10-05 06:32:00,
2013-10-04 23:42:00,33.0,18.0,30.37,South,172,1.0,3.0,53,-99.99,,,-99.99,0.000000,,2013-10-05 06:42:00,
2013-10-04 23:50:00,32.0,19.0,30.39,East,83,5.0,7.0,58,-99.99,,,-99.99,0.000000,,2013-10-05 06:50:00,